createdAt,value
2023-06-29T00:02:10.516Z,20.02
2023-06-29T00:04:37.263Z,18.52
2023-06-29T00:07:04.502Z,20.83
2023-06-29T00:09:31.242Z,16.73
2023-06-29T00:11:57.884Z,17.15
2023-06-29T00:14:24.469Z,19.90
2023-06-29T00:16:52.458Z,19.02
2023-06-29T00:19:19.211Z,21.08
2023-06-29T00:21:45.899Z,25.40
2023-06-29T00:24:12.609Z,21.80
2023-06-29T00:26:39.593Z,19.70
2023-06-29T00:29:06.617Z,23.15
2023-06-29T00:31:35.975Z,21.90
2023-06-29T00:34:04.146Z,21.70
2023-06-29T00:36:32.886Z,21.45
2023-06-29T00:39:00.002Z,22.48
2023-06-29T00:41:26.682Z,20.05
2023-06-29T00:43:53.395Z,19.95
2023-06-29T00:46:21.186Z,20.90
2023-06-29T00:48:48.459Z,21.17
2023-06-29T00:51:16.782Z,20.88
2023-06-29T00:53:44.244Z,22.95
2023-06-29T00:56:11.009Z,20.27
2023-06-29T00:58:37.677Z,22.80
2023-06-29T01:01:05.164Z,22.63
2023-06-29T01:03:33.553Z,25.05
2023-06-29T01:06:10.695Z,23.20
2023-06-29T01:08:43.896Z,25.00
2023-06-29T01:11:11.942Z,23.27
2023-06-29T01:13:41.550Z,21.27
2023-06-29T01:16:14.739Z,24.92
2023-06-29T01:18:44.883Z,24.80
2023-06-29T01:21:13.390Z,23.77
2023-06-29T01:23:43.777Z,24.85
2023-06-29T01:26:13.576Z,25.33
2023-06-29T01:28:40.309Z,21.85
2023-06-29T01:31:09.904Z,21.67
2023-06-29T01:33:36.743Z,21.20
2023-06-29T01:36:08.231Z,24.58
2023-06-29T01:38:44.721Z,21.60
2023-06-29T01:41:16.107Z,23.52
2023-06-29T01:43:43.969Z,28.88
2023-06-29T01:46:11.378Z,25.83
2023-06-29T01:48:39.330Z,26.17
2023-06-29T01:51:06.796Z,26.75
2023-06-29T01:53:36.122Z,24.15
2023-06-29T01:56:04.358Z,24.35
2023-06-29T01:58:32.441Z,23.63
2023-06-29T02:00:59.204Z,24.42
2023-06-29T02:03:26.059Z,25.85
2023-06-29T02:05:52.852Z,22.85
2023-06-29T02:08:19.569Z,23.20
2023-06-29T02:10:46.332Z,21.90
2023-06-29T02:13:14.673Z,25.20
2023-06-29T02:15:43.132Z,24.38
2023-06-29T02:18:10.034Z,25.40
2023-06-29T02:20:36.886Z,23.10
2023-06-29T02:23:03.704Z,23.55
2023-06-29T02:25:30.376Z,22.83
2023-06-29T02:27:56.956Z,25.80
2023-06-29T02:30:23.848Z,23.42
2023-06-29T02:32:52.670Z,23.77
2023-06-29T02:35:19.444Z,23.52
2023-06-29T02:37:46.160Z,27.15
2023-06-29T02:40:13.507Z,26.13
2023-06-29T02:42:41.778Z,23.85
2023-06-29T02:45:11.256Z,23.98
2023-06-29T02:47:38.773Z,27.13
2023-06-29T02:50:08.853Z,26.02
2023-06-29T02:52:46.398Z,24.55
2023-06-29T02:55:13.286Z,22.70
2023-06-29T02:57:39.958Z,28.70
2023-06-29T03:00:08.459Z,25.33
2023-06-29T03:02:35.230Z,24.23
2023-06-29T03:05:02.136Z,24.38
2023-06-29T03:07:30.519Z,23.65
2023-06-29T03:09:57.358Z,22.90
2023-06-29T03:12:24.039Z,24.65
2023-06-29T03:14:50.744Z,22.45
2023-06-29T03:17:17.542Z,24.02
2023-06-29T03:19:44.329Z,23.13
2023-06-29T03:22:11.013Z,25.25
2023-06-29T03:24:39.070Z,22.98
2023-06-29T03:27:06.517Z,24.80
2023-06-29T03:29:33.201Z,26.83
2023-06-29T03:32:00.013Z,24.55
2023-06-29T03:34:26.664Z,24.90
2023-06-29T03:36:53.417Z,25.20
2023-06-29T03:39:20.068Z,26.35
2023-06-29T03:41:48.134Z,29.75
2023-06-29T03:44:14.917Z,26.58
2023-06-29T03:46:41.627Z,29.08
2023-06-29T03:49:08.360Z,25.77
2023-06-29T03:51:35.016Z,25.25
2023-06-29T03:54:01.624Z,25.00
2023-06-29T03:56:28.294Z,25.20
2023-06-29T03:58:56.312Z,26.17
2023-06-29T04:01:23.044Z,23.42
2023-06-29T04:03:50.822Z,26.33
2023-06-29T04:06:17.549Z,26.60
2023-06-29T04:08:44.254Z,27.13
2023-06-29T04:11:12.555Z,28.27
2023-06-29T04:13:39.415Z,23.52
2023-06-29T04:16:07.765Z,25.05
2023-06-29T04:18:35.747Z,24.15
2023-06-29T04:21:02.457Z,25.08
2023-06-29T04:23:29.059Z,27.00
2023-06-29T04:25:55.671Z,24.02
2023-06-29T04:28:22.313Z,27.65
2023-06-29T04:30:49.091Z,27.88
2023-06-29T04:33:17.155Z,25.33
2023-06-29T04:35:45.094Z,24.17
2023-06-29T04:38:12.623Z,25.85
2023-06-29T04:40:39.439Z,25.70
2023-06-29T04:43:06.335Z,24.58
2023-06-29T04:45:33.357Z,31.45
2023-06-29T04:48:00.933Z,27.92
2023-06-29T04:50:30.652Z,25.88
2023-06-29T04:52:58.520Z,26.23
2023-06-29T04:55:25.816Z,24.67
2023-06-29T04:57:52.792Z,25.33
2023-06-29T05:00:19.773Z,28.20
2023-06-29T05:02:46.870Z,28.00
2023-06-29T05:05:13.574Z,26.40
2023-06-29T05:07:41.622Z,25.42
2023-06-29T05:10:08.676Z,26.63
2023-06-29T05:12:35.424Z,26.30
2023-06-29T05:15:02.225Z,25.35
2023-06-29T05:17:28.994Z,27.35
2023-06-29T05:19:55.665Z,25.95
2023-06-29T05:22:22.388Z,28.42
2023-06-29T05:24:50.413Z,27.92
2023-06-29T05:27:17.099Z,23.73
2023-06-29T05:29:43.880Z,25.77
2023-06-29T05:32:10.587Z,23.10
2023-06-29T05:34:37.284Z,30.85
2023-06-29T05:37:04.390Z,26.42
2023-06-29T05:39:31.031Z,27.77
2023-06-29T05:41:59.421Z,27.50
2023-06-29T05:44:26.074Z,27.05
2023-06-29T05:46:52.718Z,23.40
2023-06-29T05:49:19.430Z,24.20
2023-06-29T05:51:46.144Z,23.83
2023-06-29T05:54:12.899Z,27.88
2023-06-29T05:56:39.591Z,23.63
2023-06-29T05:59:07.563Z,26.13
2023-06-29T06:01:34.253Z,22.42
2023-06-29T06:04:01.031Z,28.08
2023-06-29T06:06:27.747Z,22.80
2023-06-29T06:08:54.451Z,26.83
2023-06-29T06:11:21.122Z,29.55
2023-06-29T06:13:47.824Z,24.48
2023-06-29T06:16:15.976Z,27.40
2023-06-29T06:18:42.651Z,26.13
2023-06-29T06:21:09.407Z,29.05
2023-06-29T06:23:36.252Z,25.10
2023-06-29T06:26:03.049Z,30.38
2023-06-29T06:28:29.675Z,27.55
2023-06-29T06:30:56.412Z,25.73
2023-06-29T06:33:24.504Z,28.00
2023-06-29T06:35:51.260Z,29.63
2023-06-29T06:38:17.889Z,27.52
2023-06-29T06:40:44.780Z,22.35
2023-06-29T06:43:11.695Z,28.92
2023-06-29T06:45:38.402Z,25.27
2023-06-29T06:48:05.461Z,27.60
2023-06-29T06:50:33.574Z,24.23
2023-06-29T06:53:00.792Z,26.98
2023-06-29T06:55:27.451Z,28.65
2023-06-29T06:57:54.187Z,27.55
2023-06-29T07:00:21.084Z,28.73
2023-06-29T07:02:47.763Z,28.77
2023-06-29T07:05:14.659Z,32.10
2023-06-29T07:07:42.814Z,27.90
2023-06-29T07:10:10.317Z,30.17
2023-06-29T07:12:37.016Z,25.48
2023-06-29T07:15:04.464Z,24.15
2023-06-29T07:17:31.236Z,25.83
2023-06-29T07:24:59.231Z,27.13
2023-06-29T07:27:25.871Z,26.80
2023-06-29T07:29:52.635Z,28.50
2023-06-29T07:32:19.318Z,22.88
2023-06-29T07:34:46.023Z,28.20
2023-06-29T07:37:12.713Z,27.40
2023-06-29T07:39:39.502Z,25.52
2023-06-29T07:42:07.597Z,28.95
2023-06-29T07:44:34.372Z,24.73
2023-06-29T07:47:01.160Z,22.05
2023-06-29T07:49:28.046Z,23.13
2023-06-29T07:51:54.862Z,24.20
2023-06-29T07:54:21.528Z,25.13
2023-06-29T07:59:19.241Z,24.08
2023-06-29T08:01:48.398Z,21.02
2023-06-29T08:04:15.179Z,25.10
2023-06-29T08:06:50.376Z,20.40
2023-06-29T08:09:18.344Z,23.52
2023-06-29T08:11:45.035Z,24.10
2023-06-29T08:14:11.715Z,20.50
2023-06-29T08:16:39.809Z,21.08
2023-06-29T08:19:06.730Z,21.13
2023-06-29T08:21:33.521Z,20.38
2023-06-29T08:24:00.144Z,23.10
2023-06-29T08:26:27.137Z,24.35
2023-06-29T08:28:53.860Z,24.42
2023-06-29T08:31:20.735Z,22.02
2023-06-29T08:33:48.853Z,21.98
2023-06-29T08:36:15.728Z,19.20
2023-06-29T08:38:44.894Z,18.50
2023-06-29T08:41:11.676Z,18.80
2023-06-29T08:43:38.394Z,20.60
2023-06-29T08:46:05.124Z,21.70
2023-06-29T08:48:32.921Z,17.70
2023-06-29T08:51:04.148Z,15.60
2023-06-29T08:53:31.267Z,16.92
2023-06-29T08:55:58.769Z,19.50
2023-06-29T08:58:26.869Z,19.60
2023-06-29T09:00:54.701Z,16.33
2023-06-29T09:03:23.581Z,21.40
2023-06-29T09:05:51.368Z,18.85
2023-06-29T09:08:21.049Z,16.90
2023-06-29T09:10:48.017Z,19.90
2023-06-29T09:13:15.006Z,19.27
2023-06-29T09:15:41.721Z,17.55
2023-06-29T09:18:08.765Z,18.52
2023-06-29T09:20:36.290Z,21.20
2023-06-29T09:23:03.640Z,17.02
2023-06-29T09:25:35.544Z,17.70
2023-06-29T09:28:04.062Z,19.10
2023-06-29T09:30:35.753Z,19.63
2023-06-29T09:35:32.282Z,18.15
2023-06-29T09:38:01.924Z,17.10
2023-06-29T09:40:28.589Z,18.10
2023-06-29T09:42:56.611Z,15.90
2023-06-29T09:45:28.178Z,17.42
2023-06-29T09:50:24.788Z,14.32
2023-06-29T09:52:53.996Z,18.42
2023-06-29T09:55:29.735Z,14.45
2023-06-29T09:57:59.434Z,13.95
2023-06-29T10:00:26.152Z,15.05
2023-06-29T10:02:52.846Z,15.13
2023-06-29T10:05:19.637Z,14.55
2023-06-29T10:07:46.632Z,13.02
2023-06-29T10:10:16.215Z,15.90
2023-06-29T10:12:42.995Z,13.60
2023-06-29T10:15:14.971Z,16.15
2023-06-29T10:17:47.837Z,13.95
2023-06-29T10:20:17.141Z,16.10
2023-06-29T10:22:44.642Z,15.50
2023-06-29T10:25:15.300Z,12.38
2023-06-29T10:27:42.987Z,17.50
2023-06-29T10:30:12.106Z,14.43
2023-06-29T10:32:40.566Z,13.50
2023-06-29T10:35:10.271Z,12.70
2023-06-29T10:37:38.233Z,15.18
2023-06-29T10:40:13.681Z,12.35
2023-06-29T10:42:56.651Z,13.48
2023-06-29T10:45:38.731Z,14.57
2023-06-29T10:48:28.040Z,13.95
2023-06-29T10:51:06.922Z,14.65
2023-06-29T10:53:35.606Z,15.60
2023-06-29T10:56:02.265Z,13.27
2023-06-29T10:58:36.174Z,16.30
2023-06-29T11:01:04.146Z,13.80
2023-06-29T11:03:31.019Z,14.88
2023-06-29T11:05:57.712Z,15.15
2023-06-29T11:08:25.620Z,15.40
2023-06-29T11:10:52.710Z,16.80
2023-06-29T11:13:20.443Z,16.40
2023-06-29T11:15:52.653Z,16.58
2023-06-29T11:18:20.989Z,17.42
2023-06-29T11:20:47.778Z,16.80
2023-06-29T11:23:14.771Z,15.48
2023-06-29T11:25:41.506Z,15.75
2023-06-29T11:28:08.197Z,17.50
2023-06-29T11:30:38.943Z,20.35
2023-06-29T11:33:16.395Z,17.37
2023-06-29T11:35:52.589Z,15.60
2023-06-29T11:38:19.740Z,18.00
2023-06-29T11:40:46.468Z,18.08
2023-06-29T11:43:15.824Z,17.77
2023-06-29T11:45:42.513Z,15.88
2023-06-29T11:48:09.233Z,16.25
2023-06-29T11:50:36.110Z,18.38
2023-06-29T11:53:04.349Z,17.50
2023-06-29T11:55:31.003Z,13.73
2023-06-29T11:57:57.606Z,16.48
2023-06-29T12:00:30.400Z,18.73
2023-06-29T12:02:57.772Z,14.95
2023-06-29T12:05:28.235Z,14.73
2023-06-29T12:07:55.328Z,14.20
2023-06-29T12:10:24.322Z,15.45
2023-06-29T12:12:52.530Z,16.52
2023-06-29T12:15:20.545Z,15.32
2023-06-29T12:20:20.226Z,18.52
2023-06-29T12:22:48.206Z,15.32
2023-06-29T12:25:16.221Z,12.55
2023-06-29T12:27:45.599Z,14.73
2023-06-29T12:30:13.487Z,16.35
2023-06-29T12:32:40.273Z,15.07
2023-06-29T12:35:07.351Z,13.77
2023-06-29T12:37:34.228Z,13.88
2023-06-29T12:40:00.940Z,16.70
2023-06-29T12:42:27.540Z,17.20
2023-06-29T12:44:55.578Z,16.42
2023-06-29T12:47:22.337Z,14.50
2023-06-29T12:49:48.991Z,14.90
2023-06-29T12:52:15.832Z,15.65
2023-06-29T12:54:42.502Z,15.00
2023-06-29T12:57:09.171Z,16.67
2023-06-29T12:59:35.823Z,17.42
2023-06-29T13:02:04.191Z,16.65
2023-06-29T13:04:33.255Z,17.80
2023-06-29T13:07:01.794Z,16.53
2023-06-29T13:09:29.472Z,20.48
2023-06-29T13:11:56.206Z,20.08
2023-06-29T13:14:22.787Z,19.20
2023-06-29T13:16:49.559Z,17.05
2023-06-29T13:19:17.836Z,17.77
2023-06-29T13:21:44.595Z,18.67
2023-06-29T13:24:11.417Z,20.10
2023-06-29T13:26:38.172Z,18.45
2023-06-29T13:29:04.895Z,19.55
2023-06-29T13:31:31.628Z,23.05
2023-06-29T13:33:58.381Z,21.77
2023-06-29T13:36:26.541Z,19.23
2023-06-29T13:38:53.099Z,22.50
2023-06-29T13:41:33.825Z,18.45
2023-06-29T13:44:00.506Z,19.08
2023-06-29T13:46:27.178Z,19.42
2023-06-29T13:48:53.822Z,21.05
2023-06-29T13:51:20.425Z,19.48
2023-06-29T13:53:48.982Z,20.23
2023-06-29T13:56:15.788Z,22.17
2023-06-29T13:58:42.482Z,20.73
2023-06-29T14:01:09.133Z,21.60
2023-06-29T14:03:35.911Z,22.13
2023-06-29T14:06:02.654Z,22.25
2023-06-29T14:08:29.292Z,24.55
2023-06-29T14:10:57.299Z,21.73
2023-06-29T14:13:23.972Z,24.48
2023-06-29T14:15:50.639Z,23.77
2023-06-29T14:18:17.311Z,26.33
2023-06-29T14:20:44.170Z,22.02
2023-06-29T14:23:10.774Z,25.25
2023-06-29T14:25:37.596Z,26.58
2023-06-29T14:28:05.645Z,26.20
2023-06-29T14:30:32.313Z,21.38
2023-06-29T14:32:59.046Z,23.67
2023-06-29T14:35:31.958Z,27.77
2023-06-29T14:38:13.237Z,23.13
2023-06-29T14:40:41.247Z,27.35
2023-06-29T14:43:09.340Z,24.38
2023-06-29T14:45:36.004Z,26.77
2023-06-29T14:48:02.745Z,24.90
2023-06-29T14:50:29.371Z,28.20
2023-06-29T14:52:56.080Z,27.10
2023-06-29T14:55:22.686Z,27.10
2023-06-29T14:57:50.642Z,29.40
2023-06-29T15:00:19.893Z,31.15
2023-06-29T15:02:46.799Z,26.85
2023-06-29T15:05:13.621Z,28.83
2023-06-29T15:07:40.286Z,24.25
2023-06-29T15:10:07.981Z,26.58
2023-06-29T15:12:34.726Z,23.48
2023-06-29T15:15:01.494Z,27.60
2023-06-29T15:17:29.626Z,27.58
2023-06-29T15:19:56.581Z,26.30
2023-06-29T15:22:23.315Z,25.38
2023-06-29T15:24:49.981Z,23.67
2023-06-29T15:27:16.712Z,24.40
2023-06-29T15:29:43.355Z,27.42
2023-06-29T15:32:10.231Z,24.90
2023-06-29T15:34:38.272Z,25.27
2023-06-29T15:37:05.577Z,25.67
2023-06-29T15:39:32.235Z,26.85
2023-06-29T15:41:59.151Z,27.52
2023-06-29T15:44:25.751Z,24.55
2023-06-29T15:46:54.136Z,22.77
2023-06-29T15:49:21.311Z,21.90
2023-06-29T15:51:50.499Z,23.42
2023-06-29T15:54:17.286Z,23.13
2023-06-29T15:56:44.162Z,24.20
2023-06-29T15:59:11.188Z,30.35
2023-06-29T16:01:37.932Z,25.85
2023-06-29T16:04:05.090Z,24.15
2023-06-29T16:06:32.700Z,25.75
2023-06-29T16:09:01.147Z,26.73
2023-06-29T16:11:27.907Z,25.52
2023-06-29T16:13:55.349Z,25.70
2023-06-29T16:16:22.131Z,29.38
2023-06-29T16:18:48.904Z,27.23
2023-06-29T16:21:15.562Z,27.42
2023-06-29T16:23:42.240Z,25.95
2023-06-29T16:26:10.468Z,32.50
2023-06-29T16:28:37.182Z,29.15
2023-06-29T16:31:04.010Z,25.83
2023-06-29T16:33:30.762Z,27.05
2023-06-29T16:35:57.455Z,24.63
2023-06-29T16:38:24.103Z,27.27
2023-06-29T16:40:50.896Z,32.35
2023-06-29T16:43:18.932Z,28.50
2023-06-29T16:45:45.723Z,30.60
2023-06-29T16:48:12.663Z,27.15
2023-06-29T16:50:39.447Z,32.33
2023-06-29T16:53:06.123Z,30.67
2023-06-29T16:55:32.819Z,30.98
2023-06-29T16:57:59.454Z,29.05
2023-06-29T17:00:27.440Z,32.50
2023-06-29T17:02:54.448Z,28.02
2023-06-29T17:05:21.672Z,29.85
2023-06-29T17:07:48.437Z,27.77
2023-06-29T17:10:15.128Z,29.42
2023-06-29T17:12:41.873Z,29.83
2023-06-29T17:15:10.161Z,30.85
2023-06-29T17:17:38.337Z,30.67
2023-06-29T17:20:06.152Z,30.98
2023-06-29T17:22:32.896Z,31.17
2023-06-29T17:24:59.612Z,33.58
2023-06-29T17:27:26.259Z,33.20
2023-06-29T17:29:52.947Z,32.42
2023-06-29T17:32:19.632Z,32.53
2023-06-29T17:34:47.816Z,33.80
2023-06-29T17:37:14.699Z,38.55
2023-06-29T17:39:41.371Z,34.10
2023-06-29T17:42:19.122Z,34.80
2023-06-29T17:44:45.851Z,38.80
2023-06-29T17:47:12.537Z,35.42
2023-06-29T17:49:39.207Z,35.72
2023-06-29T17:52:08.034Z,37.72
2023-06-29T17:54:34.611Z,34.97
2023-06-29T17:57:01.244Z,39.05
2023-06-29T17:59:28.056Z,37.70
2023-06-29T18:01:54.861Z,39.85
2023-06-29T18:04:21.814Z,42.38
2023-06-29T18:06:48.694Z,39.90
2023-06-29T18:09:16.768Z,40.67
2023-06-29T18:11:43.464Z,41.05
2023-06-29T18:14:10.241Z,39.17
2023-06-29T18:16:37.150Z,39.72
2023-06-29T18:19:03.918Z,40.47
2023-06-29T18:21:33.783Z,36.58
2023-06-29T18:24:00.511Z,40.83
2023-06-29T18:26:28.882Z,37.35
2023-06-29T18:28:55.531Z,39.55
2023-06-29T18:31:22.403Z,42.38
2023-06-29T18:33:49.101Z,38.10
2023-06-29T18:36:15.878Z,39.35
2023-06-29T18:38:42.699Z,41.70
2023-06-29T18:41:29.349Z,42.17
2023-06-29T18:43:56.054Z,42.58
2023-06-29T18:46:23.547Z,43.45
2023-06-29T18:48:50.231Z,44.78
2023-06-29T18:51:16.967Z,43.97
2023-06-29T18:53:43.641Z,45.67
2023-06-29T18:56:10.342Z,41.10
2023-06-29T18:58:38.355Z,43.50
2023-06-29T19:01:05.041Z,48.38
2023-06-29T19:03:31.862Z,43.35
2023-06-29T19:05:58.755Z,39.90
2023-06-29T19:08:25.634Z,36.53
2023-06-29T19:10:52.361Z,40.97
2023-06-29T19:13:19.111Z,39.42
2023-06-29T19:15:47.692Z,36.13
2023-06-29T19:18:15.560Z,30.08
2023-06-29T19:20:42.303Z,30.15
2023-06-29T19:23:09.087Z,29.15
2023-06-29T19:25:35.820Z,24.50
2023-06-29T19:28:02.768Z,18.60
2023-06-29T19:30:29.423Z,18.90
2023-06-29T19:32:58.930Z,12.80
2023-06-29T19:35:25.819Z,10.52
2023-06-29T19:37:52.522Z,10.90
2023-06-29T19:40:19.403Z,10.63
2023-06-29T19:42:46.126Z,9.77
2023-06-29T19:45:13.001Z,6.82
2023-06-29T19:47:39.734Z,6.95
2023-06-29T19:50:08.773Z,8.43
2023-06-29T19:52:35.459Z,8.55
2023-06-29T19:55:02.107Z,5.82
2023-06-29T19:57:28.857Z,7.25
2023-06-29T19:59:55.541Z,7.70
2023-06-29T20:02:22.507Z,6.68
2023-06-29T20:04:49.551Z,6.60
2023-06-29T20:07:17.699Z,8.45
2023-06-29T20:09:44.485Z,7.07
2023-06-29T20:12:11.209Z,6.53
2023-06-29T20:14:37.857Z,10.13
2023-06-29T20:17:04.951Z,7.20
2023-06-29T20:19:31.771Z,9.35
2023-06-29T20:21:58.492Z,7.10
2023-06-29T20:24:26.570Z,8.52
2023-06-29T20:26:53.282Z,7.60
2023-06-29T20:29:19.957Z,7.00
2023-06-29T20:31:46.723Z,8.65
2023-06-29T20:34:15.176Z,8.55
2023-06-29T20:36:41.865Z,6.13
2023-06-29T20:39:08.634Z,5.82
2023-06-29T20:41:36.722Z,5.47
2023-06-29T20:44:03.537Z,8.95
2023-06-29T20:46:30.376Z,5.80
2023-06-29T20:48:57.315Z,6.50
2023-06-29T20:51:24.083Z,6.55
2023-06-29T20:53:50.784Z,5.93
2023-06-29T20:56:17.490Z,4.97
2023-06-29T20:58:45.710Z,5.60
2023-06-29T21:03:39.136Z,3.97
2023-06-29T21:06:05.886Z,3.65
2023-06-29T21:08:32.762Z,4.05
2023-06-29T21:10:59.666Z,3.40
2023-06-29T21:13:27.008Z,4.30
2023-06-29T21:15:55.471Z,5.78
2023-06-29T21:18:23.678Z,2.90
2023-06-29T21:20:51.054Z,2.10
2023-06-29T21:23:18.097Z,3.85
2023-06-29T21:25:45.414Z,1.98
2023-06-29T21:28:12.780Z,5.43
2023-06-29T21:30:39.761Z,2.50
2023-06-29T21:33:08.473Z,3.25
2023-06-29T21:35:36.010Z,1.50
2023-06-29T21:38:03.623Z,2.08
2023-06-29T21:40:30.482Z,1.48
2023-06-29T21:42:57.260Z,2.40
2023-06-29T21:45:25.244Z,4.88
2023-06-29T21:47:51.897Z,2.38
2023-06-29T21:50:19.961Z,3.63
2023-06-29T21:52:46.893Z,3.05
2023-06-29T21:55:15.452Z,2.75
2023-06-29T21:57:42.191Z,1.55
2023-06-29T22:00:10.252Z,2.40
2023-06-29T22:02:45.641Z,4.53
2023-06-29T22:05:13.009Z,4.25
2023-06-29T22:07:41.730Z,6.43
2023-06-29T22:10:09.882Z,3.75
2023-06-29T22:12:36.731Z,2.97
2023-06-29T22:15:03.592Z,3.47
2023-06-29T22:17:30.326Z,5.00
2023-06-29T22:20:13.529Z,5.07
2023-06-29T22:22:41.864Z,4.53
2023-06-29T22:25:09.720Z,4.43
2023-06-29T22:27:37.149Z,2.55
2023-06-29T22:30:04.726Z,3.67
2023-06-29T22:32:31.558Z,5.03
2023-06-29T22:34:58.469Z,5.32
2023-06-29T22:37:25.195Z,3.33
2023-06-29T22:39:55.481Z,3.20
2023-06-29T22:42:22.256Z,8.52
2023-06-29T22:44:49.016Z,4.90
2023-06-29T22:47:15.856Z,3.83
2023-06-29T22:49:42.745Z,5.35
2023-06-29T22:52:10.139Z,5.90
2023-06-29T22:54:36.869Z,7.13
2023-06-29T22:57:05.662Z,4.65
2023-06-29T22:59:32.387Z,4.07
2023-06-29T23:01:59.147Z,4.93
2023-06-29T23:04:25.812Z,6.60
2023-06-29T23:06:52.549Z,5.13
2023-06-29T23:09:19.421Z,6.57
2023-06-29T23:11:46.161Z,4.57
2023-06-29T23:14:14.262Z,6.05
2023-06-29T23:16:41.221Z,6.60
2023-06-29T23:19:07.969Z,3.80
2023-06-29T23:21:35.090Z,5.47
2023-06-29T23:24:01.955Z,6.18
2023-06-29T23:26:28.746Z,7.70
2023-06-29T23:28:55.604Z,5.72
2023-06-29T23:31:23.808Z,3.25
2023-06-29T23:33:50.623Z,5.25
2023-06-29T23:36:20.372Z,5.85
2023-06-29T23:38:47.089Z,3.00
2023-06-29T23:41:13.766Z,6.47
2023-06-29T23:43:40.477Z,7.72
2023-06-29T23:46:07.195Z,6.10
2023-06-29T23:48:35.240Z,4.32
2023-06-29T23:51:01.986Z,3.63
2023-06-29T23:53:28.919Z,3.70
2023-06-29T23:55:55.636Z,9.20
2023-06-29T23:58:22.321Z,8.25
